Time;durP1;ratioP1;P1;durP2;ratioP2;P2;SDS_P1;SDS_P2;PMS_P1;PMS_P2;Temp;Humidity;BMP_temperature;BMP_pressure;BME280_temperature;BME280_humidity;BME280_pressure;Samples;Min_cycle;Max_cycle;Signal;HPM_P1;HPM_P2
2021/07/14 00:01:49;;;;;;;0.32;0.32;;;23.10;99.90;;;;;;5111783;28;20163;-72
2021/07/14 00:04:15;;;;;;;1.45;1.17;;;23.10;99.90;;;;;;5110533;28;20175;-72
2021/07/14 00:06:42;;;;;;;0.45;0.45;;;23.20;99.90;;;;;;5110290;28;20174;-72
2021/07/14 00:09:08;;;;;;;0.52;0.52;;;23.20;99.90;;;;;;5111590;28;20193;-72
2021/07/14 00:11:42;;;;;;;1.20;0.77;;;23.20;99.90;;;;;;5111574;28;20163;-72
2021/07/14 00:22:22;;;;;;;2.60;1.70;;;23.20;99.90;;;;;;5111357;28;20193;-72
2021/07/14 00:24:48;;;;;;;9.95;0.90;;;23.20;99.90;;;;;;5111260;28;20163;-72
2021/07/14 00:27:14;;;;;;;0.40;0.40;;;23.10;99.90;;;;;;5111271;28;20155;-72
2021/07/14 00:29:49;;;;;;;2.75;1.63;;;23.20;99.90;;;;;;5111182;28;20243;-72
2021/07/14 00:32:16;;;;;;;4.95;2.50;;;23.30;99.90;;;;;;5111044;28;20190;-72
2021/07/14 00:34:43;;;;;;;8.90;0.50;;;23.30;99.90;;;;;;5111056;28;20177;-72
2021/07/14 00:37:10;;;;;;;9.90;1.45;;;23.40;99.90;;;;;;5110989;28;20159;-72
2021/07/14 00:39:37;;;;;;;1.42;1.33;;;23.40;99.90;;;;;;5110937;28;20151;-72
2021/07/14 00:42:05;;;;;;;1.85;0.47;;;23.40;99.90;;;;;;5110909;28;20194;-72
2021/07/14 00:44:31;;;;;;;1.23;0.82;;;23.50;99.90;;;;;;5110692;28;20214;-72
2021/07/14 00:46:57;;;;;;;1.05;1.02;;;23.60;99.90;;;;;;5110799;28;20182;-72
2021/07/14 00:49:22;;;;;;;1.20;0.98;;;23.60;99.90;;;;;;5109412;28;20190;-72
2021/07/14 00:51:48;;;;;;;1.17;0.88;;;23.60;99.90;;;;;;5110642;28;20190;-72
2021/07/14 00:54:15;;;;;;;6.43;1.27;;;23.60;99.90;;;;;;5110745;28;20158;-72
2021/07/14 00:56:41;;;;;;;1.48;0.98;;;23.60;99.90;;;;;;5110683;28;20155;-72
2021/07/14 00:59:07;;;;;;;0.88;0.82;;;23.60;99.90;;;;;;5109384;28;20677;-72
2021/07/14 01:01:35;;;;;;;1.45;1.27;;;23.60;99.90;;;;;;5110699;28;20700;-72
2021/07/14 01:04:11;;;;;;;2.15;1.40;;;23.60;99.90;;;;;;5110422;28;20186;-72
2021/07/14 01:06:59;;;;;;;0.75;0.75;;;23.50;99.90;;;;;;5110589;28;20191;-72
2021/07/14 01:09:32;;;;;;;1.00;0.90;;;23.50;99.90;;;;;;5109178;28;20212;-73
2021/07/14 01:12:08;;;;;;;0.90;0.88;;;23.40;99.90;;;;;;5110331;28;20186;-72
2021/07/14 01:15:04;;;;;;;0.75;0.60;;;23.10;99.90;;;;;;5110469;28;20154;-72
2021/07/14 01:17:33;;;;;;;1.10;0.47;;;22.80;99.90;;;;;;5083813;28;20252;-72
2021/07/14 01:20:09;;;;;;;1.15;0.98;;;22.10;99.90;;;;;;5110159;28;20159;-72
2021/07/14 01:22:55;;;;;;;0.85;0.85;;;21.60;99.90;;;;;;5110212;28;20194;-72
2021/07/14 01:26:03;;;;;;;0.98;0.98;;;21.40;99.90;;;;;;5110134;28;20159;-72
2021/07/14 01:28:32;;;;;;;2.67;1.95;;;21.20;99.90;;;;;;5087507;28;20182;-72
2021/07/14 01:31:00;;;;;;;0.65;0.65;;;21.00;99.90;;;;;;5110067;28;20185;-73
2021/07/14 01:33:36;;;;;;;1.55;1.42;;;20.80;99.90;;;;;;5109919;28;20258;-73
2021/07/14 01:36:07;;;;;;;2.60;2.10;;;20.80;99.90;;;;;;5110121;28;20166;-73
2021/07/14 01:38:36;;;;;;;2.58;1.80;;;20.80;99.90;;;;;;5108622;28;20167;-73
2021/07/14 01:41:03;;;;;;;3.45;1.25;;;21.00;99.90;;;;;;5108561;28;20168;-73
2021/07/14 01:43:37;;;;;;;0.40;0.40;;;21.00;99.90;;;;;;5109747;28;20179;-73
2021/07/14 01:46:05;;;;;;;3.67;1.55;;;21.20;99.90;;;;;;5069445;28;20169;-73
2021/07/14 01:48:33;;;;;;;2.10;1.00;;;21.30;99.90;;;;;;5069411;28;20149;-73
2021/07/14 01:51:01;;;;;;;1.63;1.55;;;21.30;99.90;;;;;;5069360;28;20167;-73
2021/07/14 01:53:27;;;;;;;10.30;1.70;;;21.30;99.90;;;;;;5069263;28;20184;-73
2021/07/14 01:55:55;;;;;;;9.82;0.93;;;21.30;99.90;;;;;;5068004;28;20218;-73
2021/07/14 01:58:24;;;;;;;0.40;0.40;;;21.30;99.90;;;;;;5069320;28;20153;-73
2021/07/14 02:00:52;;;;;;;0.40;0.40;;;21.30;99.90;;;;;;5069231;28;20164;-73
2021/07/14 02:06:00;;;;;;;0.85;0.68;;;21.40;99.90;;;;;;5069302;28;20169;-73
2021/07/14 02:08:27;;;;;;;1.23;0.57;;;21.60;99.90;;;;;;5069176;28;20161;-73
2021/07/14 02:10:55;;;;;;;0.35;0.30;;;21.60;99.90;;;;;;5068952;28;20208;-73
2021/07/14 02:13:24;;;;;;;1.27;1.17;;;21.50;99.90;;;;;;5053902;28;20201;-73
2021/07/14 02:15:59;;;;;;;0.85;0.82;;;21.60;99.90;;;;;;5064421;28;20165;-73
2021/07/14 02:18:37;;;;;;;2.20;1.40;;;21.70;99.90;;;;;;5049183;28;20166;-73
2021/07/14 02:21:03;;;;;;;0.20;0.20;;;21.70;99.90;;;;;;5049083;28;20180;-73
2021/07/14 02:23:29;;;;;;;0.80;0.80;;;21.60;99.90;;;;;;5048973;28;20192;-73
2021/07/14 02:25:55;;;;;;;0.30;0.30;;;21.60;99.90;;;;;;5049013;28;20523;-73
2021/07/14 02:28:21;;;;;;;0.15;0.15;;;21.70;99.90;;;;;;5064280;28;20165;-73
2021/07/14 02:30:47;;;;;;;1.27;0.95;;;21.60;99.90;;;;;;5064272;28;20243;-73
2021/07/14 02:33:14;;;;;;;4.75;0.80;;;21.60;99.90;;;;;;5048815;28;20193;-73
2021/07/14 02:35:43;;;;;;;1.77;0.98;;;21.50;99.90;;;;;;5048881;28;20154;-73
2021/07/14 02:38:33;;;;;;;0.60;0.60;;;21.50;99.90;;;;;;5048759;28;20169;-72
2021/07/14 02:41:25;;;;;;;0.45;0.45;;;21.40;99.90;;;;;;5041861;28;20181;-72
2021/07/14 02:44:01;;;;;;;1.00;0.70;;;21.30;99.90;;;;;;5056101;28;20192;-72
2021/07/14 02:46:33;;;;;;;1.55;0.65;;;21.10;99.90;;;;;;5092758;28;20171;-72
2021/07/14 02:49:02;;;;;;;4.47;1.20;;;21.00;99.90;;;;;;5092570;28;20180;-72
2021/07/14 02:51:33;;;;;;;1.50;1.27;;;20.90;99.90;;;;;;5092676;28;20180;-72
2021/07/14 02:54:02;;;;;;;0.77;0.77;;;20.90;99.90;;;;;;5092621;28;20218;-72
2021/07/14 02:56:31;;;;;;;1.35;1.25;;;20.90;99.90;;;;;;5092632;28;20156;-73
2021/07/14 02:59:08;;;;;;;1.88;1.23;;;20.70;99.90;;;;;;5074555;28;20229;-73
2021/07/14 03:01:39;;;;;;;2.00;1.90;;;20.50;99.90;;;;;;5074216;28;20172;-72
2021/07/14 03:04:06;;;;;;;2.30;1.25;;;20.40;99.90;;;;;;5092314;28;20191;-72
2021/07/14 03:06:38;;;;;;;1.50;1.02;;;20.30;99.90;;;;;;5092398;28;20183;-72
2021/07/14 03:09:05;;;;;;;0.80;0.80;;;20.40;99.90;;;;;;5074192;28;20289;-72
2021/07/14 03:11:35;;;;;;;0.65;0.65;;;20.40;99.90;;;;;;5092323;28;20148;-72
2021/07/14 03:14:03;;;;;;;2.47;0.93;;;20.40;99.90;;;;;;5074084;28;20218;-71
2021/07/14 03:16:31;;;;;;;1.05;0.93;;;20.40;99.90;;;;;;5092278;28;20263;-72
2021/07/14 03:18:57;;;;;;;0.85;0.75;;;20.40;99.90;;;;;;5092279;28;20160;-73
2021/07/14 03:21:24;;;;;;;1.25;1.00;;;20.40;99.90;;;;;;5092041;28;20163;-73
2021/07/14 03:23:51;;;;;;;0.55;0.55;;;20.40;99.90;;;;;;5092023;28;20194;-73
2021/07/14 03:26:17;;;;;;;5.85;0.40;;;20.20;99.90;;;;;;5092177;28;20190;-73
2021/07/14 03:28:43;;;;;;;0.57;0.57;;;20.10;99.90;;;;;;5091858;28;20167;-73
2021/07/14 03:31:12;;;;;;;2.40;0.77;;;20.00;99.90;;;;;;5092064;28;20171;-73
2021/07/14 03:33:37;;;;;;;1.02;1.02;;;20.00;99.90;;;;;;5073877;28;20200;-73
2021/07/14 03:36:05;;;;;;;0.88;0.85;;;20.00;99.90;;;;;;5091920;28;20577;-73
2021/07/14 03:38:32;;;;;;;1.42;1.40;;;20.00;99.90;;;;;;5092132;28;20153;-73
2021/07/14 03:40:59;;;;;;;0.98;0.65;;;20.10;99.90;;;;;;5091708;28;20164;-73
2021/07/14 03:43:26;;;;;;;0.10;0.10;;;20.20;99.90;;;;;;5091702;28;20656;-73
2021/07/14 03:45:54;;;;;;;2.28;1.25;;;20.20;99.90;;;;;;5073430;28;20219;-73
2021/07/14 03:48:22;;;;;;;2.40;0.63;;;20.10;99.90;;;;;;5091669;28;20171;-74
2021/07/14 03:50:49;;;;;;;0.90;0.80;;;20.20;99.90;;;;;;5091547;28;20210;-73
2021/07/14 03:53:18;;;;;;;0.10;0.10;;;20.30;99.90;;;;;;5072427;28;20192;-71
2021/07/14 03:55:47;;;;;;;1.38;0.70;;;20.30;99.90;;;;;;5091530;28;20152;-72
2021/07/14 03:58:13;;;;;;;0.70;0.63;;;20.30;99.90;;;;;;5091463;28;20152;-72
2021/07/14 04:00:40;;;;;;;0.47;0.47;;;20.30;99.90;;;;;;5091201;28;20160;-72
2021/07/14 04:03:09;;;;;;;0.57;0.40;;;20.40;99.90;;;;;;5091177;28;20195;-72
2021/07/14 04:05:42;;;;;;;0.68;0.65;;;20.40;99.90;;;;;;5091378;28;20152;-72
2021/07/14 04:08:13;;;;;;;8.57;0.68;;;20.30;99.90;;;;;;5091217;28;20156;-72
2021/07/14 04:10:40;;;;;;;3.35;1.30;;;20.10;99.90;;;;;;5091020;28;20209;-71
2021/07/14 04:13:05;;;;;;;1.20;1.10;;;19.90;99.90;;;;;;5091196;28;20187;-73
2021/07/14 04:15:33;;;;;;;0.47;0.47;;;19.90;99.90;;;;;;5091179;28;20166;-73
2021/07/14 04:17:59;;;;;;;1.58;1.48;;;19.90;99.90;;;;;;5091149;28;20148;-73
2021/07/14 04:20:25;;;;;;;0.17;0.17;;;19.90;99.90;;;;;;5091097;28;20175;-73
2021/07/14 04:22:50;;;;;;;10.38;1.70;;;19.90;99.90;;;;;;5090637;28;20192;-73
2021/07/14 04:25:16;;;;;;;0.93;0.93;;;19.90;99.90;;;;;;5073047;28;20235;-71
2021/07/14 04:27:42;;;;;;;1.27;1.17;;;19.70;99.90;;;;;;5090804;28;20214;-71
2021/07/14 04:30:09;;;;;;;0.40;0.40;;;19.50;99.90;;;;;;5090788;28;20187;-70
2021/07/14 04:32:35;;;;;;;0.08;0.08;;;19.40;99.90;;;;;;5090749;28;20209;-72
2021/07/14 04:35:01;;;;;;;2.80;0.68;;;19.20;99.90;;;;;;5090768;28;20519;-71
2021/07/14 04:37:27;;;;;;;1.30;1.17;;;19.00;99.90;;;;;;5090723;28;20164;-71
2021/07/14 04:39:53;;;;;;;4.63;1.75;;;18.80;99.90;;;;;;5090476;28;20163;-71
2021/07/14 04:42:19;;;;;;;7.97;0.55;;;18.70;99.90;;;;;;5090522;28;20192;-72
2021/07/14 04:44:50;;;;;;;0.40;0.40;;;18.60;99.90;;;;;;5090370;28;20219;-73
2021/07/14 04:47:16;;;;;;;1.60;0.68;;;18.60;99.90;;;;;;5090360;28;20156;-73
2021/07/14 04:49:42;;;;;;;3.83;0.88;;;18.60;99.90;;;;;;5090363;28;20184;-73
2021/07/14 04:52:09;;;;;;;1.55;0.65;;;18.80;99.90;;;;;;5090368;28;20231;-73
2021/07/14 04:54:35;;;;;;;0.57;0.57;;;18.70;99.90;;;;;;5072239;28;20648;-73
2021/07/14 04:57:02;;;;;;;0.88;0.57;;;18.60;99.90;;;;;;5072344;28;20164;-73
2021/07/14 04:59:27;;;;;;;0.43;0.43;;;18.50;99.90;;;;;;5090105;28;20160;-73
2021/07/14 05:01:53;;;;;;;0.30;0.30;;;18.40;99.90;;;;;;5090076;28;20618;-73
2021/07/14 05:04:19;;;;;;;2.10;1.95;;;18.40;99.90;;;;;;5089704;28;20164;-72
2021/07/14 05:06:47;;;;;;;1.20;1.10;;;18.40;99.90;;;;;;5071684;28;20202;-72
2021/07/14 05:09:13;;;;;;;0.50;0.50;;;18.30;99.90;;;;;;5089963;28;20661;-72
2021/07/14 05:11:39;;;;;;;0.25;0.15;;;18.40;99.90;;;;;;5089922;28;20160;-71
2021/07/14 05:14:04;;;;;;;9.07;1.30;;;18.40;99.90;;;;;;5089863;28;20255;-72
2021/07/14 05:16:30;;;;;;;0.20;0.20;;;18.20;99.90;;;;;;5071723;28;20196;-72
2021/07/14 05:18:57;;;;;;;0.20;0.20;;;18.20;99.90;;;;;;5071917;28;20155;-72
2021/07/14 05:21:23;;;;;;;5.75;1.17;;;18.20;99.90;;;;;;5089736;28;20160;-72
2021/07/14 05:23:49;;;;;;;1.50;1.27;;;18.20;99.90;;;;;;5071774;28;20201;-72
2021/07/14 05:26:16;;;;;;;0.20;0.20;;;18.20;99.90;;;;;;5088736;28;20563;-73
2021/07/14 05:28:42;;;;;;;0.38;0.38;;;18.20;99.90;;;;;;5089546;28;20148;-72
2021/07/14 05:31:08;;;;;;;0.55;0.52;;;18.30;99.90;;;;;;5089874;28;20630;-72
2021/07/14 05:33:34;;;;;;;1.75;1.15;;;18.20;99.90;;;;;;5089500;28;20192;-72
2021/07/14 05:36:00;;;;;;;4.03;2.15;;;18.10;99.90;;;;;;5089358;28;20191;-72
2021/07/14 05:38:28;;;;;;;0.55;0.55;;;18.10;99.90;;;;;;5089536;28;20163;-73
2021/07/14 05:40:54;;;;;;;0.32;0.32;;;18.10;99.90;;;;;;5089362;28;20258;-73
2021/07/14 05:43:20;;;;;;;1.45;0.55;;;17.90;99.90;;;;;;5088944;28;20184;-72
2021/07/14 05:45:46;;;;;;;0.28;0.28;;;18.00;99.90;;;;;;5070942;28;20230;-70
2021/07/14 05:48:13;;;;;;;0.88;0.85;;;18.10;99.90;;;;;;5089323;28;20156;-71
2021/07/14 05:50:40;;;;;;;0.45;0.45;;;18.00;99.90;;;;;;5071403;28;20196;-71
2021/07/14 05:53:06;;;;;;;0.57;0.52;;;18.00;99.90;;;;;;5089237;28;20195;-73
2021/07/14 05:55:32;;;;;;;0.00;0.00;;;17.80;99.90;;;;;;5089154;28;20156;-72
2021/07/14 05:57:58;;;;;;;0.50;0.50;;;17.90;99.90;;;;;;5070909;28;20514;-70
2021/07/14 06:00:26;;;;;;;0.20;0.20;;;17.90;99.90;;;;;;5089107;28;20160;-72
2021/07/14 06:02:52;;;;;;;3.00;0.52;;;18.10;99.90;;;;;;5089144;28;20246;-72
2021/07/14 06:05:18;;;;;;;9.18;1.00;;;18.10;99.90;;;;;;5089209;28;20275;-71
2021/07/14 06:07:46;;;;;;;0.63;0.63;;;18.10;99.90;;;;;;5089377;28;20685;-70
2021/07/14 06:10:12;;;;;;;1.50;1.08;;;18.10;99.90;;;;;;5088910;28;20604;-71
2021/07/14 06:12:39;;;;;;;9.00;0.68;;;18.20;99.90;;;;;;5089003;28;20203;-72
2021/07/14 06:15:08;;;;;;;2.38;1.58;;;18.30;99.90;;;;;;5088966;28;20254;-71
2021/07/14 06:17:34;;;;;;;3.97;0.45;;;18.30;99.90;;;;;;5088509;28;20525;-72
2021/07/14 06:20:00;;;;;;;0.63;0.55;;;18.30;99.90;;;;;;5088766;28;20198;-72
2021/07/14 06:22:27;;;;;;;0.10;0.10;;;18.20;99.90;;;;;;5070820;28;20200;-72
2021/07/14 06:24:54;;;;;;;0.70;0.70;;;18.20;99.90;;;;;;5088965;28;20153;-72
2021/07/14 06:27:19;;;;;;;0.13;0.13;;;18.20;99.90;;;;;;5088978;28;20540;-73
2021/07/14 06:29:46;;;;;;;0.10;0.10;;;18.20;99.90;;;;;;5088859;28;20188;-73
2021/07/14 06:32:11;;;;;;;0.88;0.85;;;18.20;99.90;;;;;;5088909;28;20730;-72
2021/07/14 06:34:37;;;;;;;3.30;2.33;;;18.20;99.90;;;;;;5088894;28;20251;-72
2021/07/14 06:37:03;;;;;;;1.52;1.42;;;18.30;99.90;;;;;;5070681;28;20190;-74
2021/07/14 06:39:29;;;;;;;0.75;0.68;;;18.30;99.90;;;;;;5088999;28;20166;-74
2021/07/14 06:41:56;;;;;;;0.57;0.57;;;18.40;99.90;;;;;;5088693;28;20213;-74
2021/07/14 06:44:22;;;;;;;16.98;1.30;;;18.30;99.90;;;;;;5088219;28;20223;-74
2021/07/14 06:46:48;;;;;;;0.10;0.10;;;18.30;99.90;;;;;;5070859;28;20202;-73
2021/07/14 06:49:14;;;;;;;0.25;0.25;;;18.20;99.90;;;;;;5088648;28;20188;-74
2021/07/14 06:51:40;;;;;;;0.63;0.57;;;18.30;99.90;;;;;;5088580;28;20180;-74
2021/07/14 06:54:06;;;;;;;2.33;1.88;;;18.20;99.90;;;;;;5088436;28;20195;-74
2021/07/14 06:56:32;;;;;;;0.65;0.65;;;18.20;99.90;;;;;;5070176;28;20209;-74
2021/07/14 06:58:58;;;;;;;0.47;0.47;;;18.10;99.90;;;;;;5088091;28;20166;-74
2021/07/14 07:01:24;;;;;;;0.20;0.20;;;18.50;99.90;;;;;;5088026;28;20229;-74
2021/07/14 07:03:50;;;;;;;0.30;0.30;;;19.00;99.90;;;;;;5088014;28;20191;-74
2021/07/14 07:06:16;;;;;;;0.30;0.30;;;19.20;99.90;;;;;;5087935;28;20161;-74
2021/07/14 07:08:41;;;;;;;0.50;0.40;;;19.80;99.90;;;;;;5087758;28;20179;-74
2021/07/14 07:11:07;;;;;;;0.45;0.45;;;20.40;99.90;;;;;;5086852;28;20549;-75
2021/07/14 07:13:33;;;;;;;1.45;1.35;;;20.70;99.90;;;;;;5087713;28;20188;-74
2021/07/14 07:16:01;;;;;;;5.68;1.27;;;21.60;99.90;;;;;;5087635;28;20611;-74
2021/07/14 07:18:27;;;;;;;1.63;0.40;;;23.20;99.90;;;;;;5087789;28;20234;-75
2021/07/14 07:20:54;;;;;;;0.50;0.50;;;24.30;99.90;;;;;;5087896;28;20252;-74
2021/07/14 07:23:21;;;;;;;0.40;0.40;;;25.10;99.90;;;;;;5087824;28;20246;-74
2021/07/14 07:25:47;;;;;;;0.30;0.30;;;25.10;99.90;;;;;;5069902;28;20163;-74
2021/07/14 07:28:15;;;;;;;0.43;0.28;;;25.60;99.90;;;;;;5090002;28;20213;-75
2021/07/14 07:30:41;;;;;;;1.45;1.35;;;26.00;99.90;;;;;;5091429;28;20262;-74
2021/07/14 07:33:08;;;;;;;5.10;0.20;;;26.50;99.90;;;;;;5091685;28;20221;-74
2021/07/14 07:35:34;;;;;;;2.15;0.80;;;26.20;99.90;;;;;;5073181;28;20186;-75
2021/07/14 07:38:00;;;;;;;10.05;0.95;;;26.10;99.90;;;;;;5091199;28;20156;-75
2021/07/14 07:40:27;;;;;;;1.13;0.47;;;28.20;99.90;;;;;;5091257;28;20164;-75
2021/07/14 07:42:53;;;;;;;0.70;0.50;;;28.30;99.90;;;;;;5091240;28;20187;-75
2021/07/14 07:45:19;;;;;;;3.28;1.90;;;26.70;99.90;;;;;;5072906;28;20227;-75
2021/07/14 07:47:46;;;;;;;1.10;0.82;;;26.00;99.90;;;;;;5090916;28;20159;-75
2021/07/14 07:50:12;;;;;;;0.40;0.30;;;25.30;99.90;;;;;;5090968;28;20183;-75
2021/07/14 07:52:39;;;;;;;4.00;1.55;;;24.70;99.90;;;;;;5073043;28;20210;-75
2021/07/14 07:55:09;;;;;;;1.35;0.75;;;24.20;99.90;;;;;;5090873;28;20155;-75
2021/07/14 07:57:40;;;;;;;0.47;0.47;;;24.20;99.90;;;;;;5090512;28;20166;-75
2021/07/14 08:00:14;;;;;;;0.30;0.30;;;23.80;99.90;;;;;;5091068;28;20159;-75
2021/07/14 08:02:40;;;;;;;1.98;0.82;;;23.40;99.90;;;;;;5090969;28;20159;-74
2021/07/14 08:05:08;;;;;;;1.30;0.88;;;22.80;99.90;;;;;;5088923;28;20163;-74
2021/07/14 08:07:34;;;;;;;0.68;0.55;;;22.90;99.90;;;;;;5071852;28;20179;-75
2021/07/14 08:10:00;;;;;;;0.50;0.47;;;23.00;99.90;;;;;;5072712;28;20195;-75
2021/07/14 08:12:27;;;;;;;1.50;1.15;;;23.10;99.90;;;;;;5090805;28;20159;-75
2021/07/14 08:14:53;;;;;;;0.30;0.30;;;23.20;99.90;;;;;;5091042;28;20159;-74
2021/07/14 08:17:18;;;;;;;1.48;0.95;;;23.20;99.90;;;;;;5090679;28;20184;-75
2021/07/14 08:19:46;;;;;;;0.82;0.82;;;23.10;99.90;;;;;;5090842;28;20251;-75
2021/07/14 08:22:12;;;;;;;0.50;0.50;;;23.10;99.90;;;;;;5090878;28;20262;-74
2021/07/14 08:24:38;;;;;;;1.20;0.73;;;23.30;99.90;;;;;;5072848;28;20179;-75
2021/07/14 08:27:04;;;;;;;0.47;0.47;;;23.70;99.90;;;;;;5090861;28;20174;-75
2021/07/14 08:29:30;;;;;;;0.88;0.38;;;24.10;99.90;;;;;;5072766;28;20195;-75
2021/07/14 08:31:56;;;;;;;0.38;0.38;;;24.80;99.90;;;;;;5090746;28;20155;-75
2021/07/14 08:34:21;;;;;;;6.90;1.02;;;26.30;99.90;;;;;;5090597;28;20187;-75
2021/07/14 08:36:47;;;;;;;1.77;0.77;;;26.40;99.90;;;;;;5090607;28;20163;-74
2021/07/14 08:39:14;;;;;;;1.33;1.20;;;26.40;99.90;;;;;;5089754;28;20254;-74
2021/07/14 08:41:43;;;;;;;1.08;0.63;;;25.60;99.90;;;;;;5090541;28;20188;-75
2021/07/14 08:44:10;;;;;;;2.67;0.55;;;25.20;99.90;;;;;;5090190;28;20175;-74
2021/07/14 08:46:36;;;;;;;2.10;0.73;;;25.10;99.90;;;;;;5090389;28;20171;-74
2021/07/14 08:49:05;;;;;;;4.80;0.50;;;25.00;99.90;;;;;;5072440;28;20195;-75
2021/07/14 08:51:36;;;;;;;0.47;0.47;;;25.00;99.90;;;;;;5089869;28;20205;-75
2021/07/14 08:54:02;;;;;;;0.90;0.45;;;25.00;99.90;;;;;;5071980;28;20170;-75
2021/07/14 08:56:29;;;;;;;1.00;0.77;;;24.70;99.90;;;;;;5090132;28;20612;-75
2021/07/14 08:58:56;;;;;;;0.77;0.77;;;24.80;99.90;;;;;;5072282;28;20223;-74
2021/07/14 09:01:22;;;;;;;0.10;0.10;;;25.40;99.90;;;;;;5090325;28;20166;-75
2021/07/14 09:03:48;;;;;;;1.30;0.55;;;26.50;99.90;;;;;;5090029;28;20160;-75
2021/07/14 09:06:14;;;;;;;0.13;0.13;;;26.80;99.90;;;;;;5086868;28;20187;-74
2021/07/14 09:08:40;;;;;;;1.00;0.47;;;27.50;99.90;;;;;;5089603;28;20656;-73
2021/07/14 09:11:07;;;;;;;1.92;0.98;;;26.70;99.90;;;;;;5089811;28;20183;-72
2021/07/14 09:13:36;;;;;;;4.13;0.85;;;27.20;99.90;;;;;;5071837;28;20194;-73
2021/07/14 09:16:02;;;;;;;1.17;0.98;;;26.70;99.90;;;;;;5089835;28;20243;-75
2021/07/14 09:18:29;;;;;;;2.58;1.88;;;26.30;99.90;;;;;;5071623;28;20206;-74
2021/07/14 09:20:56;;;;;;;1.75;0.68;;;25.90;99.90;;;;;;5071506;28;20183;-74
2021/07/14 09:23:28;;;;;;;1.70;0.82;;;25.60;99.90;;;;;;5089676;28;20186;-74
2021/07/14 09:25:56;;;;;;;9.18;1.75;;;25.80;99.90;;;;;;5087313;28;20160;-75
2021/07/14 09:28:33;;;;;;;0.57;0.57;;;25.60;99.90;;;;;;5069632;28;20199;-75
2021/07/14 09:31:01;;;;;;;0.73;0.63;;;25.50;99.90;;;;;;5051435;28;20198;-73
2021/07/14 09:33:28;;;;;;;5.63;1.08;;;24.70;99.90;;;;;;5069479;28;20156;-75
2021/07/14 09:35:57;;;;;;;1.40;1.13;;;25.30;99.90;;;;;;5074448;28;20224;-72
2021/07/14 09:38:31;;;;;;;2.15;1.42;;;25.70;99.90;;;;;;5077956;28;20205;-74
2021/07/14 09:40:59;;;;;;;3.35;1.23;;;26.50;99.90;;;;;;5074108;28;20242;-74
2021/07/14 09:43:28;;;;;;;1.00;0.65;;;27.80;99.90;;;;;;5051169;28;20164;-74
2021/07/14 09:45:56;;;;;;;0.57;0.57;;;28.70;99.90;;;;;;5050706;28;20227;-75
2021/07/14 09:48:33;;;;;;;0.52;0.52;;;30.80;99.90;;;;;;5068835;28;20231;-75
2021/07/14 09:51:00;;;;;;;1.10;1.00;;;32.10;99.90;;;;;;5049970;28;20274;-73
2021/07/14 09:53:29;;;;;;;5.47;0.88;;;30.00;99.90;;;;;;5050906;28;20522;-75
2021/07/14 09:55:57;;;;;;;2.90;0.70;;;28.80;99.90;;;;;;5067788;28;20400;-75
2021/07/14 09:58:31;;;;;;;2.55;0.60;;;29.70;99.90;;;;;;5068407;28;20205;-74
2021/07/14 10:00:59;;;;;;;5.03;2.22;;;30.90;99.90;;;;;;5068744;28;20199;-73
2021/07/14 10:03:36;;;;;;;2.25;0.98;;;31.10;99.90;;;;;;5068660;28;20167;-74
2021/07/14 10:06:12;;;;;;;0.68;0.68;;;30.40;99.90;;;;;;5069010;28;20160;-74
2021/07/14 10:08:43;;;;;;;2.47;1.83;;;30.50;99.90;;;;;;5068316;28;20196;-74
2021/07/14 10:11:11;;;;;;;0.65;0.60;;;30.80;99.90;;;;;;5068610;28;20184;-73
2021/07/14 10:13:39;;;;;;;2.28;1.08;;;30.80;99.90;;;;;;5071961;28;20152;-74
2021/07/14 10:16:06;;;;;;;0.40;0.40;;;31.40;99.90;;;;;;5083433;28;20167;-74
2021/07/14 10:18:33;;;;;;;3.88;2.03;;;31.80;99.90;;;;;;5053906;28;20556;-74
2021/07/14 10:21:03;;;;;;;0.80;0.60;;;31.50;99.90;;;;;;5069844;28;20229;-74
2021/07/14 10:23:32;;;;;;;0.50;0.50;;;32.00;99.90;;;;;;5088746;28;20159;-74
2021/07/14 10:26:00;;;;;;;1.83;0.88;;;30.30;99.90;;;;;;5088174;28;20223;-74
2021/07/14 10:28:28;;;;;;;1.10;0.38;;;29.00;99.90;;;;;;5087103;28;20171;-74
2021/07/14 10:30:56;;;;;;;1.83;1.70;;;29.40;99.90;;;;;;5066465;28;20246;-75
2021/07/14 10:33:24;;;;;;;3.13;1.52;;;29.60;99.90;;;;;;5087758;28;20179;-75
2021/07/14 10:35:52;;;;;;;3.13;0.52;;;29.20;99.90;;;;;;5070526;28;20180;-74
2021/07/14 10:38:19;;;;;;;5.68;2.15;;;29.70;99.90;;;;;;5070383;28;20171;-75
2021/07/14 10:40:47;;;;;;;0.30;0.30;;;29.90;99.90;;;;;;5088490;28;20171;-75
2021/07/14 10:43:15;;;;;;;0.95;0.88;;;30.20;99.90;;;;;;5070178;28;20217;-75
2021/07/14 10:45:49;;;;;;;1.08;0.73;;;31.10;99.90;;;;;;5088503;28;20292;-70
2021/07/14 10:48:18;;;;;;;1.98;0.82;;;29.90;99.90;;;;;;5086513;28;20162;-70
2021/07/14 10:50:47;;;;;;;0.68;0.68;;;28.70;99.90;;;;;;5069846;28;20199;-71
2021/07/14 10:53:14;;;;;;;0.40;0.40;;;28.50;99.90;;;;;;5087408;28;20211;-71
2021/07/14 10:55:42;;;;;;;1.15;0.98;;;28.70;99.90;;;;;;5088287;28;20167;-71
2021/07/14 10:58:12;;;;;;;0.40;0.40;;;29.30;99.90;;;;;;5084837;28;20202;-71
2021/07/14 11:00:40;;;;;;;2.60;1.08;;;29.50;99.90;;;;;;5081729;28;20246;-71
2021/07/14 11:03:06;;;;;;;6.43;1.50;;;29.10;99.90;;;;;;5088305;28;20187;-71
2021/07/14 11:05:45;;;;;;;0.60;0.60;;;29.10;99.90;;;;;;5090110;28;20186;-72
2021/07/14 11:08:49;;;;;;;3.40;2.00;;;29.70;99.90;;;;;;5073296;28;20191;-71
2021/07/14 11:11:17;;;;;;;1.25;0.65;;;30.50;99.90;;;;;;5071469;28;20203;-71
2021/07/14 11:13:45;;;;;;;4.63;1.15;;;30.00;99.90;;;;;;5074028;28;20198;-71
2021/07/14 11:16:26;;;;;;;1.15;0.98;;;29.80;99.90;;;;;;5073748;28;20160;-71
2021/07/14 11:19:01;;;;;;;6.53;1.77;;;30.30;99.90;;;;;;5073276;28;20202;-71
2021/07/14 11:21:52;;;;;;;7.45;0.40;;;30.70;99.90;;;;;;5091434;28;20155;-70
2021/07/14 11:24:37;;;;;;;2.40;0.43;;;30.30;99.90;;;;;;5073930;28;20223;-71
2021/07/14 11:27:26;;;;;;;1.30;1.20;;;28.70;99.90;;;;;;5091626;28;20151;-71
2021/07/14 11:30:15;;;;;;;1.10;0.52;;;29.20;99.90;;;;;;5075871;28;20225;-71
2021/07/14 11:32:43;;;;;;;0.40;0.40;;;28.80;99.90;;;;;;5078323;28;20187;-72
2021/07/14 11:35:20;;;;;;;0.68;0.68;;;28.10;99.90;;;;;;5091556;28;20237;-71
2021/07/14 11:37:55;;;;;;;4.22;0.65;;;27.80;99.90;;;;;;5071974;28;20187;-72
2021/07/14 11:40:24;;;;;;;0.63;0.63;;;27.70;99.90;;;;;;5090090;28;20211;-72
2021/07/14 11:42:51;;;;;;;1.35;1.25;;;26.90;99.90;;;;;;5072949;28;20187;-72
2021/07/14 11:45:33;;;;;;;1.73;1.23;;;27.50;99.90;;;;;;5058085;28;20240;-72
2021/07/14 11:48:05;;;;;;;4.43;0.77;;;29.00;99.90;;;;;;5051139;28;20161;-72
2021/07/14 11:50:46;;;;;;;2.10;1.42;;;28.10;99.90;;;;;;5050718;28;20176;-72
2021/07/14 11:56:36;;;;;;;3.60;2.08;;;28.60;99.90;;;;;;5051333;28;20268;-72
2021/07/14 11:59:13;;;;;;;3.60;2.25;;;30.20;99.90;;;;;;5032452;28;20303;-72
2021/07/14 12:01:43;;;;;;;0.93;0.32;;;30.10;99.90;;;;;;5051033;28;20184;-72
2021/07/14 12:04:09;;;;;;;0.90;0.57;;;30.40;99.90;;;;;;5049816;28;20173;-72
2021/07/14 12:06:41;;;;;;;3.30;1.13;;;29.90;99.90;;;;;;5050681;28;20166;-73
2021/07/14 12:09:12;;;;;;;14.57;1.45;;;29.30;99.90;;;;;;5049719;28;20630;-73
2021/07/14 12:11:49;;;;;;;0.65;0.65;;;29.40;99.90;;;;;;5050775;28;20273;-73
2021/07/14 12:14:21;;;;;;;0.75;0.75;;;29.20;99.90;;;;;;5049824;28;20168;-73
2021/07/14 12:16:49;;;;;;;1.13;0.75;;;29.60;99.90;;;;;;5047306;28;20192;-73
2021/07/14 12:19:30;;;;;;;0.45;0.45;;;30.60;99.90;;;;;;5050628;28;20177;-72
2021/07/14 12:22:03;;;;;;;1.35;1.25;;;30.30;99.90;;;;;;5050603;28;20200;-73
2021/07/14 12:24:44;;;;;;;1.40;1.30;;;29.30;99.90;;;;;;5048974;28;20242;-73
2021/07/14 12:27:20;;;;;;;0.70;0.70;;;27.80;99.90;;;;;;5049125;28;20190;-73
2021/07/14 12:29:54;;;;;;;7.88;0.75;;;27.40;99.90;;;;;;5049645;28;20196;-71
2021/07/14 12:32:30;;;;;;;0.47;0.47;;;27.40;99.90;;;;;;5048892;28;20168;-73
2021/07/14 12:34:56;;;;;;;0.77;0.77;;;27.70;99.90;;;;;;5050049;28;20164;-71
2021/07/14 12:37:22;;;;;;;0.60;0.60;;;27.00;99.90;;;;;;5049727;28;20153;-73
2021/07/14 12:39:48;;;;;;;0.75;0.57;;;26.80;99.90;;;;;;5049582;28;20196;-72
2021/07/14 12:42:21;;;;;;;0.70;0.43;;;26.60;99.90;;;;;;5049480;28;20186;-72
2021/07/14 12:44:49;;;;;;;2.78;0.73;;;26.90;99.90;;;;;;5062940;28;20218;-72
2021/07/14 12:47:21;;;;;;;0.50;0.50;;;26.90;99.90;;;;;;5087884;28;20179;-72
2021/07/14 12:49:50;;;;;;;1.02;0.95;;;26.60;99.90;;;;;;5088643;28;20210;-72
2021/07/14 12:52:22;;;;;;;0.70;0.68;;;26.50;99.90;;;;;;5069664;28;20192;-72
2021/07/14 12:54:56;;;;;;;0.32;0.20;;;26.80;99.90;;;;;;5067722;28;20250;-72
2021/07/14 12:57:27;;;;;;;5.10;0.82;;;26.90;99.90;;;;;;5089941;28;20163;-72
2021/07/14 12:59:58;;;;;;;0.10;0.10;;;26.70;99.90;;;;;;5071914;28;20263;-72
2021/07/14 13:02:27;;;;;;;1.23;0.43;;;27.00;99.90;;;;;;5089621;28;20191;-72
2021/07/14 13:04:58;;;;;;;5.68;0.60;;;27.50;99.90;;;;;;5089109;28;20240;-72
2021/07/14 13:07:29;;;;;;;0.32;0.32;;;27.80;99.90;;;;;;5089724;28;20166;-72
2021/07/14 13:10:00;;;;;;;0.65;0.63;;;27.80;99.90;;;;;;5071524;28;20188;-75